createdAt,value
2023-05-16T00:00:47.339Z,14.50
2023-05-16T00:01:47.421Z,12.30
2023-05-16T00:02:47.387Z,15.90
2023-05-16T00:03:47.376Z,14.70
2023-05-16T00:04:47.314Z,11.80
2023-05-16T00:05:47.290Z,13.00
2023-05-16T00:06:47.284Z,11.00
2023-05-16T00:07:47.279Z,11.10
2023-05-16T00:08:47.256Z,17.20
2023-05-16T00:09:47.294Z,10.20
2023-05-16T00:10:47.248Z,9.70
2023-05-16T00:11:47.231Z,11.50
2023-05-16T00:12:47.233Z,14.50
2023-05-16T00:13:47.208Z,13.00
2023-05-16T00:14:47.201Z,9.70
2023-05-16T00:15:47.185Z,10.40
2023-05-16T00:16:47.267Z,9.40
2023-05-16T00:17:47.272Z,8.60
2023-05-16T00:18:47.184Z,11.00
2023-05-16T00:19:47.155Z,7.80
2023-05-16T00:20:47.144Z,8.90
2023-05-16T00:21:47.137Z,9.40
2023-05-16T00:22:47.116Z,9.30
2023-05-16T00:23:47.110Z,6.90
2023-05-16T00:24:47.102Z,6.50
2023-05-16T00:25:47.091Z,53.40
2023-05-16T00:26:47.092Z,266.10
2023-05-16T00:27:47.074Z,202.00
2023-05-16T00:28:47.054Z,128.50
2023-05-16T00:29:47.048Z,13.90
2023-05-16T00:30:47.047Z,13.60
2023-05-16T00:31:47.045Z,17.30
2023-05-16T00:32:47.061Z,16.90
2023-05-16T00:33:47.007Z,13.50
2023-05-16T00:34:47.041Z,11.20
2023-05-16T00:35:47.001Z,12.50
2023-05-16T00:36:46.975Z,11.50
2023-05-16T00:37:46.977Z,12.50
2023-05-16T00:38:46.962Z,11.50
2023-05-16T00:39:46.967Z,9.60
2023-05-16T00:40:46.941Z,7.50
2023-05-16T00:41:46.919Z,8.70
2023-05-16T00:42:46.917Z,12.00
2023-05-16T00:43:46.902Z,12.60
2023-05-16T00:44:46.902Z,13.50
2023-05-16T00:45:46.936Z,12.10
2023-05-16T00:46:47.067Z,12.10
2023-05-16T00:47:46.977Z,14.70
2023-05-16T00:48:46.860Z,14.40
2023-05-16T00:49:46.848Z,13.00
2023-05-16T00:50:46.829Z,12.50
2023-05-16T00:51:46.855Z,13.50
2023-05-16T00:52:46.807Z,14.80
2023-05-16T00:53:46.798Z,14.00
2023-05-16T00:54:46.800Z,14.90
2023-05-16T00:55:46.779Z,19.10
2023-05-16T00:56:46.766Z,15.80
2023-05-16T00:57:46.755Z,13.00
2023-05-16T00:58:46.768Z,15.00
2023-05-16T00:59:46.763Z,15.00
2023-05-16T01:00:48.572Z,13.10
2023-05-16T01:01:46.772Z,12.10
2023-05-16T01:02:46.879Z,12.10
2023-05-16T01:03:46.992Z,11.50
2023-05-16T01:04:46.680Z,12.30
2023-05-16T01:05:46.711Z,11.70
2023-05-16T01:06:46.670Z,12.60
2023-05-16T01:07:46.654Z,11.70
2023-05-16T01:08:46.655Z,13.90
2023-05-16T01:09:46.642Z,14.60
2023-05-16T01:10:46.625Z,13.30
2023-05-16T01:11:46.615Z,14.00
2023-05-16T01:12:46.600Z,14.00
2023-05-16T01:13:46.603Z,14.00
2023-05-16T01:14:46.577Z,13.20
2023-05-16T01:15:46.617Z,14.40
2023-05-16T01:16:46.574Z,13.30
2023-05-16T01:17:46.609Z,13.90
2023-05-16T01:18:46.600Z,14.20
2023-05-16T01:19:46.533Z,13.40
2023-05-16T01:20:46.536Z,15.50
2023-05-16T01:21:46.522Z,15.90
2023-05-16T01:22:46.509Z,14.30
2023-05-16T01:23:46.514Z,14.40
2023-05-16T01:24:46.507Z,15.80
2023-05-16T01:25:46.484Z,16.20
2023-05-16T01:26:46.511Z,14.80
2023-05-16T01:27:46.463Z,13.20
2023-05-16T01:28:46.457Z,12.60
2023-05-16T01:29:46.442Z,12.50
2023-05-16T01:30:46.432Z,13.60
2023-05-16T01:31:46.459Z,15.00
2023-05-16T01:32:46.457Z,14.30
2023-05-16T01:33:46.398Z,15.10
2023-05-16T01:34:47.393Z,15.40
2023-05-16T01:35:46.381Z,13.60
2023-05-16T01:36:46.381Z,15.50
2023-05-16T01:37:46.371Z,15.20
2023-05-16T01:38:46.351Z,16.70
2023-05-16T01:39:46.338Z,15.80
2023-05-16T01:40:46.326Z,13.40
2023-05-16T01:41:46.332Z,14.50
2023-05-16T01:42:46.314Z,14.40
2023-05-16T01:43:46.313Z,14.60
2023-05-16T01:44:46.291Z,15.70
2023-05-16T01:45:46.280Z,15.30
2023-05-16T01:46:46.311Z,14.90
2023-05-16T01:47:46.274Z,16.20
2023-05-16T01:48:46.259Z,15.20
2023-05-16T01:49:46.244Z,16.30
2023-05-16T01:50:46.253Z,15.20
2023-05-16T01:51:46.227Z,17.40
2023-05-16T01:52:46.213Z,17.10
2023-05-16T01:53:46.195Z,15.40
2023-05-16T01:54:46.196Z,15.50
2023-05-16T01:55:46.199Z,17.70
2023-05-16T01:56:46.172Z,15.90
2023-05-16T01:57:46.179Z,15.40
2023-05-16T01:58:46.161Z,16.70
2023-05-16T01:59:46.141Z,18.20
2023-05-16T02:00:46.192Z,17.20
2023-05-16T02:01:46.140Z,16.90
2023-05-16T02:02:46.162Z,29.00
2023-05-16T02:03:46.142Z,15.90
2023-05-16T02:04:46.084Z,16.80
2023-05-16T02:05:46.087Z,22.10
2023-05-16T02:06:46.101Z,18.50
2023-05-16T02:07:46.062Z,18.50
2023-05-16T02:08:46.051Z,17.20
2023-05-16T02:09:46.045Z,15.60
2023-05-16T02:10:46.040Z,15.40
2023-05-16T02:11:46.021Z,13.40
2023-05-16T02:12:46.019Z,14.20
2023-05-16T02:13:45.994Z,15.50
2023-05-16T02:14:45.995Z,17.10
2023-05-16T02:15:45.972Z,16.30
2023-05-16T02:16:45.980Z,17.60
2023-05-16T02:17:45.977Z,16.20
2023-05-16T02:18:46.002Z,14.70
2023-05-16T02:19:45.941Z,15.70
2023-05-16T02:20:45.919Z,16.90
2023-05-16T02:21:45.911Z,16.10
2023-05-16T02:22:45.897Z,15.10
2023-05-16T02:23:45.902Z,16.70
2023-05-16T02:24:45.885Z,17.60
2023-05-16T02:25:45.879Z,17.10
2023-05-16T02:26:45.871Z,20.50
2023-05-16T02:27:45.842Z,18.60
2023-05-16T02:28:45.846Z,19.30
2023-05-16T02:29:45.847Z,17.30
2023-05-16T02:30:45.836Z,20.40
2023-05-16T02:31:45.816Z,19.30
2023-05-16T02:32:45.795Z,19.90
2023-05-16T02:33:45.790Z,19.20
2023-05-16T02:34:45.766Z,20.90
2023-05-16T02:35:45.769Z,18.20
2023-05-16T02:36:45.749Z,22.10
2023-05-16T02:37:45.738Z,20.40
2023-05-16T02:38:45.741Z,19.80
2023-05-16T02:39:45.715Z,18.40
2023-05-16T02:40:45.711Z,18.30
2023-05-16T02:41:45.701Z,21.80
2023-05-16T02:42:45.692Z,19.00
2023-05-16T02:43:47.105Z,18.80
2023-05-16T02:44:46.670Z,16.70
2023-05-16T02:45:45.739Z,18.10
2023-05-16T02:46:45.718Z,21.10
2023-05-16T02:47:45.689Z,21.70
2023-05-16T02:48:45.624Z,18.20
2023-05-16T02:49:45.610Z,18.10
2023-05-16T02:50:45.599Z,21.10
2023-05-16T02:51:45.576Z,18.50
2023-05-16T02:52:46.589Z,18.80
2023-05-16T02:53:45.575Z,18.50
2023-05-16T02:54:48.883Z,20.40
2023-05-16T02:55:46.540Z,20.50
2023-05-16T02:56:45.524Z,20.60
2023-05-16T02:57:45.532Z,18.10
2023-05-16T02:58:45.512Z,16.80
2023-05-16T02:59:45.505Z,21.10
2023-05-16T03:00:45.490Z,20.70
2023-05-16T03:01:45.545Z,16.50
2023-05-16T03:02:45.588Z,17.80
2023-05-16T03:03:45.578Z,20.20
2023-05-16T03:04:45.454Z,18.70
2023-05-16T03:05:45.455Z,18.90
2023-05-16T03:06:45.453Z,17.70
2023-05-16T03:07:45.423Z,20.00
2023-05-16T03:08:45.408Z,20.20
2023-05-16T03:09:45.407Z,19.70
2023-05-16T03:10:45.387Z,21.40
2023-05-16T03:11:45.386Z,22.00
2023-05-16T03:12:45.374Z,20.90
2023-05-16T03:13:45.357Z,20.40
2023-05-16T03:14:45.340Z,18.40
2023-05-16T03:15:45.365Z,19.90
2023-05-16T03:16:45.420Z,20.70
2023-05-16T03:17:45.352Z,19.50
2023-05-16T03:18:45.360Z,20.60
2023-05-16T03:19:45.288Z,20.80
2023-05-16T03:20:45.296Z,20.90
2023-05-16T03:21:45.284Z,19.00
2023-05-16T03:22:45.278Z,19.40
2023-05-16T03:23:45.269Z,19.70
2023-05-16T03:24:45.292Z,18.90
2023-05-16T03:25:45.249Z,19.40
2023-05-16T03:26:45.226Z,21.00
2023-05-16T03:27:45.210Z,18.70
2023-05-16T03:28:45.201Z,18.60
2023-05-16T03:29:45.181Z,19.80
2023-05-16T03:30:45.188Z,20.30
2023-05-16T03:31:45.216Z,21.20
2023-05-16T03:32:45.202Z,20.30
2023-05-16T03:33:45.149Z,19.70
2023-05-16T03:34:45.162Z,21.20
2023-05-16T03:35:45.131Z,19.50
2023-05-16T03:36:45.108Z,20.40
2023-05-16T03:37:45.105Z,20.60
2023-05-16T03:38:45.102Z,20.20
2023-05-16T03:39:45.101Z,20.10
2023-05-16T03:40:45.067Z,19.00
2023-05-16T03:41:45.058Z,18.90
2023-05-16T03:42:45.049Z,20.20
2023-05-16T03:43:45.038Z,19.50
2023-05-16T03:44:45.040Z,18.90
2023-05-16T03:45:45.046Z,20.70
2023-05-16T03:46:45.005Z,19.10
2023-05-16T03:47:45.044Z,20.80
2023-05-16T03:48:44.998Z,18.90
2023-05-16T03:49:44.986Z,20.50
2023-05-16T03:50:44.966Z,19.00
2023-05-16T03:51:44.954Z,19.60
2023-05-16T03:52:44.943Z,18.90
2023-05-16T03:53:44.954Z,18.60
2023-05-16T03:54:44.923Z,17.80
2023-05-16T03:55:46.821Z,16.50
2023-05-16T03:56:44.898Z,17.90
2023-05-16T03:57:44.892Z,16.70
2023-05-16T03:58:44.892Z,18.10
2023-05-16T03:59:44.870Z,17.80
2023-05-16T04:00:44.862Z,18.80
2023-05-16T04:01:44.913Z,18.20
2023-05-16T04:02:45.100Z,17.50
2023-05-16T04:03:44.844Z,18.30
2023-05-16T04:04:44.835Z,15.90
2023-05-16T04:05:44.849Z,17.30
2023-05-16T04:06:44.811Z,19.00
2023-05-16T04:07:44.802Z,17.50
2023-05-16T04:08:44.787Z,16.60
2023-05-16T04:09:44.769Z,15.60
2023-05-16T04:10:44.757Z,16.60
2023-05-16T04:11:44.754Z,17.40
2023-05-16T04:12:44.757Z,15.20
2023-05-16T04:13:44.910Z,16.80
2023-05-16T04:14:44.722Z,16.90
2023-05-16T04:15:44.705Z,16.60
2023-05-16T04:16:44.738Z,17.70
2023-05-16T04:17:44.718Z,17.50
2023-05-16T04:18:44.688Z,19.50
2023-05-16T04:19:44.664Z,19.90
2023-05-16T04:20:44.670Z,17.40
2023-05-16T04:21:44.632Z,19.10
2023-05-16T04:22:44.634Z,16.70
2023-05-16T04:23:44.606Z,16.70
2023-05-16T04:24:44.606Z,18.70
2023-05-16T04:25:44.606Z,16.90
2023-05-16T04:26:44.578Z,18.80
2023-05-16T04:27:44.579Z,17.80
2023-05-16T04:28:44.557Z,19.20
2023-05-16T04:29:44.560Z,17.60
2023-05-16T04:30:44.535Z,17.60
2023-05-16T04:31:44.552Z,17.10
2023-05-16T04:32:44.557Z,18.10
2023-05-16T04:33:44.510Z,16.90
2023-05-16T04:34:44.511Z,16.90
2023-05-16T04:35:44.486Z,16.70
2023-05-16T04:36:44.485Z,17.10
2023-05-16T04:37:44.465Z,17.00
2023-05-16T04:38:44.444Z,15.40
2023-05-16T04:39:45.447Z,17.30
2023-05-16T04:40:44.442Z,17.10
2023-05-16T04:41:44.436Z,17.70
2023-05-16T04:42:44.427Z,17.30
2023-05-16T04:43:44.403Z,21.00
2023-05-16T04:44:44.395Z,18.40
2023-05-16T04:45:44.397Z,18.50
2023-05-16T04:46:44.397Z,17.00
2023-05-16T04:47:45.934Z,16.60
2023-05-16T04:48:44.358Z,16.50
2023-05-16T04:49:44.348Z,16.40
2023-05-16T04:50:44.354Z,16.70
2023-05-16T04:51:44.324Z,15.40
2023-05-16T04:52:44.311Z,15.80
2023-05-16T04:53:44.311Z,17.40
2023-05-16T04:54:44.402Z,15.60
2023-05-16T04:55:44.298Z,17.40
2023-05-16T04:56:44.281Z,15.50
2023-05-16T04:57:44.263Z,15.60
2023-05-16T04:58:44.274Z,17.90
2023-05-16T04:59:44.253Z,16.30
2023-05-16T05:00:44.241Z,15.80
2023-05-16T05:01:44.249Z,17.10
2023-05-16T05:02:44.244Z,16.00
2023-05-16T05:03:45.705Z,16.30
2023-05-16T05:04:44.220Z,17.00
2023-05-16T05:05:44.176Z,15.70
2023-05-16T05:06:44.181Z,14.60
2023-05-16T05:07:44.155Z,18.00
2023-05-16T05:08:44.147Z,16.80
2023-05-16T05:09:44.565Z,17.50
2023-05-16T05:10:44.125Z,17.20
2023-05-16T05:11:44.118Z,16.50
2023-05-16T05:12:44.100Z,16.30
2023-05-16T05:13:44.098Z,16.30
2023-05-16T05:14:44.094Z,16.40
2023-05-16T05:15:44.073Z,16.60
2023-05-16T05:16:44.061Z,16.40
2023-05-16T05:17:44.209Z,15.30
2023-05-16T05:18:44.087Z,16.70
2023-05-16T05:19:44.133Z,18.80
2023-05-16T05:20:44.024Z,17.40
2023-05-16T05:21:44.009Z,15.20
2023-05-16T05:22:43.996Z,19.70
2023-05-16T05:23:43.996Z,17.20
2023-05-16T05:24:43.977Z,16.10
2023-05-16T05:25:43.970Z,16.60
2023-05-16T05:26:43.960Z,12.80
2023-05-16T05:27:43.954Z,15.20
2023-05-16T05:28:50.799Z,13.80
2023-05-16T05:29:44.938Z,16.30
2023-05-16T05:30:43.931Z,17.80
2023-05-16T05:31:47.953Z,17.10
2023-05-16T05:32:43.986Z,14.90
2023-05-16T05:33:44.572Z,15.80
2023-05-16T05:34:45.062Z,13.10
2023-05-16T05:35:44.053Z,13.00
2023-05-16T05:36:43.966Z,13.90
2023-05-16T05:37:43.949Z,13.90
2023-05-16T05:38:43.923Z,14.70
2023-05-16T05:39:43.945Z,13.80
2023-05-16T05:40:43.933Z,14.20
2023-05-16T05:41:43.890Z,13.60
2023-05-16T05:42:46.705Z,15.40
2023-05-16T05:43:43.907Z,12.10
2023-05-16T05:44:43.884Z,13.30
2023-05-16T05:45:43.963Z,13.50
2023-05-16T05:46:43.811Z,13.80
2023-05-16T05:47:43.906Z,17.60
2023-05-16T05:48:43.879Z,12.30
2023-05-16T05:49:43.802Z,13.80
2023-05-16T05:50:43.819Z,13.40
2023-05-16T05:51:43.780Z,11.90
2023-05-16T05:52:43.781Z,11.90
2023-05-16T05:53:43.757Z,11.50
2023-05-16T05:54:43.756Z,12.70
2023-05-16T05:55:43.707Z,11.50
2023-05-16T05:56:43.725Z,12.00
2023-05-16T05:57:43.747Z,12.90
2023-05-16T05:58:43.711Z,10.50
2023-05-16T05:59:43.699Z,10.50
2023-05-16T06:00:43.720Z,11.60
2023-05-16T06:01:43.724Z,11.30
2023-05-16T06:02:43.839Z,11.30
2023-05-16T06:03:43.657Z,11.00
2023-05-16T06:04:44.845Z,11.40
2023-05-16T06:05:44.384Z,9.50
2023-05-16T06:06:43.734Z,10.40
2023-05-16T06:07:44.608Z,10.10
2023-05-16T06:08:43.734Z,9.70
2023-05-16T06:09:43.643Z,11.70
2023-05-16T06:10:43.599Z,12.80
2023-05-16T06:11:43.684Z,10.20
2023-05-16T06:12:43.677Z,11.10
2023-05-16T06:13:43.802Z,9.40
2023-05-16T06:14:44.168Z,9.90
2023-05-16T06:15:43.712Z,9.70
2023-05-16T06:16:44.976Z,8.70
2023-05-16T06:17:44.223Z,10.80
2023-05-16T06:18:43.758Z,9.50
2023-05-16T06:19:44.940Z,11.00
2023-05-16T06:20:44.125Z,10.50
2023-05-16T06:21:43.887Z,9.00
2023-05-16T06:22:43.826Z,10.40
2023-05-16T06:23:49.021Z,11.00
2023-05-16T06:24:43.950Z,11.60
2023-05-16T06:26:17.722Z,8.70
2023-05-16T06:26:52.961Z,10.90
2023-05-16T06:27:48.589Z,10.10
2023-05-16T06:28:43.439Z,8.70
2023-05-16T06:29:43.465Z,9.60
2023-05-16T06:30:43.429Z,9.10
2023-05-16T06:31:43.490Z,8.70
2023-05-16T06:33:20.658Z,8.60
2023-05-16T06:34:04.728Z,9.50
2023-05-16T07:24:10.687Z,4.00
2023-05-16T07:25:10.867Z,3.90
2023-05-16T07:26:10.709Z,4.10
2023-05-16T07:27:10.787Z,4.40
2023-05-16T07:28:10.638Z,2.40
2023-05-16T07:30:36.585Z,3.00
2023-05-16T07:33:09.533Z,3.80
2023-05-16T07:34:09.528Z,2.80
2023-05-16T07:35:09.524Z,2.40
2023-05-16T07:36:16.890Z,2.10
2023-05-16T07:38:47.511Z,2.40
2023-05-16T07:39:36.529Z,3.80
2023-05-16T07:40:36.433Z,4.90
2023-05-16T07:41:36.581Z,3.10
2023-05-16T07:44:26.006Z,2.60
2023-05-16T07:45:02.434Z,3.20
2023-05-16T07:46:02.406Z,2.50
2023-05-16T07:47:02.395Z,4.00
2023-05-16T07:48:03.106Z,2.50
2023-05-16T07:49:02.387Z,3.60
2023-05-16T07:50:02.374Z,1.90
2023-05-16T07:51:13.417Z,2.60
2023-05-16T07:52:02.317Z,2.60
2023-05-16T07:53:02.295Z,3.00
2023-05-16T07:54:02.350Z,4.00
2023-05-16T07:55:02.312Z,3.30
2023-05-16T07:56:02.276Z,3.70
2023-05-16T07:57:02.254Z,3.60
2023-05-16T07:58:02.258Z,3.60
2023-05-16T07:59:02.321Z,4.30
2023-05-16T08:00:02.245Z,3.90
2023-05-16T08:01:02.210Z,4.00
2023-05-16T08:02:02.268Z,3.20
2023-05-16T08:03:02.340Z,2.60
2023-05-16T08:04:02.240Z,4.10
2023-05-16T08:05:02.228Z,4.60
2023-05-16T08:06:02.346Z,3.30
2023-05-16T08:07:02.158Z,2.70
2023-05-16T08:08:02.135Z,4.60
2023-05-16T08:09:02.141Z,5.00
2023-05-16T08:10:02.140Z,3.50
2023-05-16T08:11:02.179Z,3.30
2023-05-16T08:12:02.104Z,3.30
2023-05-16T08:13:02.116Z,2.50
2023-05-16T08:14:02.087Z,4.10
2023-05-16T08:15:02.066Z,2.30
2023-05-16T08:16:02.113Z,1.40
2023-05-16T08:17:03.003Z,2.30
2023-05-16T08:18:02.078Z,2.70
2023-05-16T08:19:02.061Z,2.80
2023-05-16T08:20:02.005Z,4.00
2023-05-16T08:21:02.003Z,3.20
2023-05-16T08:22:01.992Z,2.80
2023-05-16T08:23:01.983Z,2.30
2023-05-16T08:24:01.996Z,4.80
2023-05-16T08:25:01.954Z,3.50
2023-05-16T08:26:01.950Z,8.30
2023-05-16T08:27:01.976Z,3.80
2023-05-16T08:28:01.936Z,4.00
2023-05-16T08:29:01.917Z,4.10
2023-05-16T08:30:01.910Z,5.80
2023-05-16T08:31:01.920Z,4.50
2023-05-16T08:32:02.004Z,7.10
2023-05-16T08:33:01.993Z,4.90
2023-05-16T08:34:01.870Z,4.90
2023-05-16T08:35:01.850Z,5.40
2023-05-16T08:36:01.835Z,4.90
2023-05-16T08:37:01.843Z,6.20
2023-05-16T08:38:01.930Z,4.70
2023-05-16T08:39:01.806Z,5.90
2023-05-16T08:40:01.802Z,5.90
2023-05-16T08:41:01.792Z,6.20
2023-05-16T08:42:01.794Z,6.30
2023-05-16T08:43:01.812Z,8.40
2023-05-16T08:44:01.767Z,5.50
2023-05-16T08:45:01.742Z,5.60
2023-05-16T08:46:01.749Z,5.50
2023-05-16T08:47:01.793Z,6.60
2023-05-16T08:48:01.776Z,5.40
2023-05-16T08:49:01.713Z,5.90
2023-05-16T08:50:01.779Z,4.80
2023-05-16T08:51:01.703Z,4.00
2023-05-16T08:52:01.765Z,9.40
2023-05-16T08:53:01.671Z,5.60
2023-05-16T08:54:01.655Z,6.90
2023-05-16T08:56:01.660Z,6.20
2023-05-16T08:57:01.628Z,8.00
2023-05-16T08:58:01.624Z,7.80
2023-05-16T08:59:01.615Z,6.60
2023-05-16T09:00:01.597Z,5.20
2023-05-16T09:01:01.644Z,9.60
2023-05-16T09:02:01.587Z,5.90
2023-05-16T09:03:01.600Z,4.30
2023-05-16T09:04:01.641Z,5.80
2023-05-16T09:05:01.567Z,5.30
2023-05-16T09:06:01.569Z,6.10
2023-05-16T09:07:01.524Z,5.60
2023-05-16T09:08:01.544Z,5.90
2023-05-16T09:09:01.507Z,8.20
2023-05-16T09:10:01.543Z,4.70
2023-05-16T09:11:01.483Z,6.80
2023-05-16T09:12:01.482Z,9.20
2023-05-16T09:13:01.469Z,5.80
2023-05-16T09:14:01.459Z,4.60
2023-05-16T09:15:01.547Z,5.10
2023-05-16T09:16:01.440Z,5.80
2023-05-16T09:17:01.433Z,6.80
2023-05-16T09:18:01.538Z,5.20
2023-05-16T09:19:01.479Z,8.70
2023-05-16T09:20:01.439Z,6.30
2023-05-16T09:21:01.382Z,5.10
2023-05-16T09:22:01.389Z,8.00
2023-05-16T09:23:01.384Z,8.20
2023-05-16T09:24:01.382Z,8.40
2023-05-16T09:25:01.346Z,7.00
2023-05-16T09:26:01.336Z,5.50
2023-05-16T09:27:01.342Z,4.80
2023-05-16T09:28:01.576Z,8.10
2023-05-16T09:29:01.338Z,8.60
2023-05-16T09:30:01.289Z,6.70
2023-05-16T09:31:01.274Z,6.40
2023-05-16T09:32:01.271Z,6.80
2023-05-16T09:33:01.321Z,5.50
2023-05-16T09:34:01.257Z,6.20
2023-05-16T09:35:01.256Z,5.40
2023-05-16T09:36:01.223Z,5.70
2023-05-16T09:37:01.206Z,9.00
2023-05-16T09:38:01.219Z,6.50
2023-05-16T09:39:01.192Z,7.60
2023-05-16T09:40:01.180Z,9.20
2023-05-16T09:41:01.177Z,5.60
2023-05-16T09:42:01.164Z,7.10
2023-05-16T09:43:01.158Z,10.90
2023-05-16T09:44:01.150Z,7.10
2023-05-16T09:45:02.077Z,6.30
2023-05-16T09:46:01.250Z,7.90
2023-05-16T09:47:01.104Z,5.80
2023-05-16T09:48:01.148Z,9.10
2023-05-16T09:49:01.083Z,5.80
2023-05-16T09:50:01.073Z,8.30
2023-05-16T09:51:02.348Z,8.30
2023-05-16T09:52:01.056Z,8.70
2023-05-16T09:53:01.051Z,7.30
2023-05-16T09:54:01.025Z,12.00
2023-05-16T09:55:01.015Z,7.70
2023-05-16T09:56:01.015Z,8.10
2023-05-16T09:57:03.011Z,7.10
2023-05-16T09:58:01.021Z,7.00
2023-05-16T09:59:00.971Z,7.60
2023-05-16T10:00:00.965Z,7.90
2023-05-16T10:01:00.952Z,6.50
2023-05-16T10:02:01.672Z,6.20
2023-05-16T10:03:11.663Z,7.60
2023-05-16T10:05:27.194Z,6.80
2023-05-16T10:06:26.889Z,7.40
2023-05-16T10:07:26.892Z,7.60
2023-05-16T10:08:27.031Z,5.80
2023-05-16T10:12:24.481Z,8.50
2023-05-16T10:13:24.466Z,7.10
2023-05-16T10:19:20.079Z,7.70
2023-05-16T10:19:42.900Z,7.60
2023-05-16T10:20:42.925Z,5.80
2023-05-16T10:21:42.900Z,7.30
2023-05-16T10:22:42.869Z,6.50
2023-05-16T10:23:42.954Z,7.40
2023-05-16T10:24:42.854Z,3.50
2023-05-16T10:25:42.841Z,6.40
2023-05-16T10:26:42.843Z,4.90
2023-05-16T10:27:42.817Z,6.90
2023-05-16T10:28:42.818Z,6.00
2023-05-16T10:29:53.580Z,4.90
2023-05-16T10:30:43.796Z,6.00
2023-05-16T10:31:42.858Z,6.50
2023-05-16T10:32:43.064Z,5.70
2023-05-16T10:33:42.748Z,6.70
2023-05-16T10:34:42.794Z,5.00
2023-05-16T10:35:42.751Z,6.00
2023-05-16T10:36:42.721Z,6.00
2023-05-16T10:37:42.704Z,6.10
2023-05-16T10:38:42.710Z,4.40
2023-05-16T10:39:42.688Z,6.70
2023-05-16T10:40:44.041Z,5.00
2023-05-16T10:46:17.206Z,5.30
2023-05-16T10:48:26.555Z,10.40
2023-05-16T10:49:26.554Z,4.20
2023-05-16T10:50:26.563Z,4.00
2023-05-16T10:51:26.513Z,4.90
2023-05-16T10:52:26.512Z,5.10
2023-05-16T10:53:26.507Z,4.70
2023-05-16T10:54:27.131Z,5.50
2023-05-16T10:55:27.316Z,4.80
2023-05-16T10:56:26.521Z,3.40
2023-05-16T10:57:26.459Z,4.80
2023-05-16T10:58:26.451Z,4.50
2023-05-16T10:59:26.428Z,5.60
2023-05-16T11:00:26.412Z,3.90
2023-05-16T11:01:26.467Z,4.90
2023-05-16T11:02:26.490Z,4.80
2023-05-16T11:03:26.519Z,3.10
2023-05-16T11:04:26.376Z,5.00
2023-05-16T11:05:26.703Z,4.80
2023-05-16T11:06:26.387Z,6.00
2023-05-16T11:07:26.348Z,5.50
2023-05-16T11:08:26.333Z,5.20
2023-05-16T11:09:26.314Z,4.40
2023-05-16T11:10:26.306Z,6.50
2023-05-16T11:11:26.301Z,6.80
2023-05-16T11:12:26.281Z,4.70
2023-05-16T11:13:26.303Z,5.10
2023-05-16T11:14:26.273Z,5.70
2023-05-16T11:15:26.471Z,3.70
2023-05-16T11:16:26.285Z,8.00
2023-05-16T11:17:29.940Z,6.80
2023-05-16T11:18:26.260Z,4.70
2023-05-16T11:20:51.721Z,4.60
2023-05-16T11:21:51.869Z,5.90
2023-05-16T11:30:32.598Z,3.80
2023-05-16T11:31:29.501Z,4.90
2023-05-16T11:32:29.529Z,4.60
2023-05-16T11:33:29.468Z,4.00
2023-05-16T11:34:29.487Z,5.20
2023-05-16T11:35:29.769Z,7.00
2023-05-16T11:36:29.458Z,4.80
2023-05-16T11:37:29.439Z,4.00
2023-05-16T11:38:29.413Z,5.30
2023-05-16T11:39:29.472Z,5.00
2023-05-16T11:40:29.396Z,4.70
2023-05-16T11:41:29.459Z,4.20
2023-05-16T11:42:29.526Z,5.10
2023-05-16T11:43:29.370Z,4.00
2023-05-16T11:44:29.545Z,3.50
2023-05-16T11:45:29.537Z,4.10
2023-05-16T11:46:29.388Z,4.00
2023-05-16T11:47:29.379Z,3.60
2023-05-16T11:48:36.178Z,3.50
2023-05-16T11:49:30.301Z,4.80
2023-05-16T11:50:29.288Z,6.50
2023-05-16T11:51:29.331Z,4.70
2023-05-16T11:52:29.271Z,3.80
2023-05-16T11:53:29.263Z,5.30
2023-05-16T11:54:29.249Z,3.40
2023-05-16T11:55:41.188Z,4.40
2023-05-16T11:56:30.239Z,4.40
2023-05-16T11:57:29.218Z,2.40
2023-05-16T11:58:29.207Z,2.80
2023-05-16T11:59:29.192Z,3.30
2023-05-16T12:00:29.203Z,2.80
2023-05-16T12:01:30.321Z,4.20
2023-05-16T12:02:29.244Z,3.00
2023-05-16T12:03:29.245Z,3.60
2023-05-16T12:04:29.333Z,3.70
2023-05-16T12:05:29.445Z,4.20
2023-05-16T12:06:29.125Z,4.00
2023-05-16T12:07:29.110Z,3.80
2023-05-16T12:08:29.110Z,4.40
2023-05-16T12:09:29.130Z,3.80
2023-05-16T12:10:29.271Z,3.70
2023-05-16T12:11:46.567Z,4.00
2023-05-16T12:12:30.065Z,4.70
2023-05-16T12:13:29.047Z,3.70
2023-05-16T12:14:29.045Z,4.20
2023-05-16T12:15:29.229Z,3.20
2023-05-16T12:16:29.061Z,4.60
2023-05-16T12:17:29.021Z,4.60
2023-05-16T12:18:29.001Z,5.00
2023-05-16T12:19:29.009Z,3.20
2023-05-16T12:20:28.992Z,5.10
2023-05-16T12:21:28.959Z,3.40
2023-05-16T12:22:28.953Z,4.10
2023-05-16T12:23:28.939Z,4.70
2023-05-16T12:24:30.357Z,4.50
2023-05-16T12:25:29.519Z,4.60
2023-05-16T12:26:28.912Z,3.20
2023-05-16T12:27:28.898Z,3.60
2023-05-16T12:28:28.906Z,4.40
2023-05-16T12:29:28.879Z,5.10
2023-05-16T12:30:29.080Z,5.70
2023-05-16T12:31:31.798Z,4.80
2023-05-16T12:32:28.893Z,7.50
2023-05-16T12:33:28.961Z,4.50
2023-05-16T12:34:28.824Z,5.90
2023-05-16T12:35:28.811Z,3.10
2023-05-16T12:36:28.805Z,5.00
2023-05-16T12:37:28.791Z,6.10
2023-05-16T12:38:28.794Z,4.20
2023-05-16T12:39:28.775Z,4.30
2023-05-16T12:40:29.128Z,2.80
2023-05-16T12:41:28.750Z,4.00
2023-05-16T12:42:28.740Z,4.10
2023-05-16T12:43:28.737Z,3.20
2023-05-16T12:44:28.718Z,4.40
2023-05-16T12:45:28.739Z,4.90
2023-05-16T12:46:28.716Z,3.70
2023-05-16T12:47:28.866Z,5.00
2023-05-16T12:48:28.685Z,3.90
2023-05-16T12:49:28.665Z,3.60
2023-05-16T12:50:28.792Z,2.70
2023-05-16T12:51:28.649Z,4.70
2023-05-16T12:52:28.637Z,5.30
2023-05-16T12:53:28.621Z,3.90
2023-05-16T12:54:28.605Z,4.30
2023-05-16T12:55:28.603Z,3.70
2023-05-16T12:56:28.603Z,4.80
2023-05-16T12:57:28.591Z,3.70
2023-05-16T12:58:28.638Z,4.70
2023-05-16T12:59:28.558Z,3.60
2023-05-16T13:00:28.698Z,4.30
2023-05-16T13:01:28.663Z,2.70
2023-05-16T13:02:28.608Z,4.60
2023-05-16T13:03:29.320Z,5.00
2023-05-16T13:04:28.506Z,5.10
2023-05-16T13:07:04.096Z,4.00
2023-05-16T13:07:54.514Z,2.40
2023-05-16T13:08:54.861Z,4.70
2023-05-16T13:09:54.546Z,6.70
2023-05-16T13:10:54.797Z,3.70
2023-05-16T13:11:54.568Z,3.90
2023-05-16T13:12:54.644Z,4.60
2023-05-16T13:13:54.531Z,3.90
2023-05-16T13:14:55.636Z,3.00
2023-05-16T13:15:54.538Z,4.80
2023-05-16T13:17:09.148Z,5.50
2023-05-16T13:18:58.076Z,4.20
2023-05-16T13:18:58.475Z,3.90
2023-05-16T13:19:58.444Z,3.80
2023-05-16T13:20:58.451Z,4.60
2023-05-16T13:21:58.440Z,4.20
2023-05-16T13:22:58.406Z,3.40
2023-05-16T13:23:58.407Z,3.80
2023-05-16T13:24:58.438Z,3.50
2023-05-16T13:25:58.392Z,3.70
2023-05-16T13:26:58.401Z,6.10
2023-05-16T13:27:58.464Z,3.90
2023-05-16T13:28:58.368Z,3.40
2023-05-16T13:29:58.360Z,5.30
2023-05-16T13:31:00.190Z,3.20
2023-05-16T13:31:58.402Z,4.70
2023-05-16T13:32:58.367Z,3.90
2023-05-16T13:33:58.303Z,3.90
2023-05-16T13:34:58.298Z,3.70
2023-05-16T13:35:58.278Z,3.70
2023-05-16T13:36:58.272Z,6.30
2023-05-16T13:37:58.312Z,3.40
2023-05-16T13:38:58.240Z,4.30
2023-05-16T13:39:58.277Z,4.30
2023-05-16T13:40:58.225Z,4.50
2023-05-16T13:41:58.215Z,3.40
2023-05-16T13:42:58.206Z,4.50
2023-05-16T13:43:58.370Z,5.10
2023-05-16T13:44:58.194Z,4.10
2023-05-16T13:45:58.200Z,4.40
2023-05-16T13:46:58.168Z,6.70
2023-05-16T13:47:58.184Z,4.60
2023-05-16T13:48:59.734Z,5.20
2023-05-16T13:49:58.137Z,4.20
2023-05-16T13:50:58.119Z,2.50
2023-05-16T13:51:58.114Z,3.90
2023-05-16T13:52:58.094Z,3.10
2023-05-16T13:53:58.093Z,4.30
2023-05-16T13:54:58.074Z,7.80
2023-05-16T13:55:58.071Z,2.80
2023-05-16T13:56:58.052Z,3.00
2023-05-16T13:57:58.054Z,2.80
2023-05-16T13:59:01.112Z,3.50
2023-05-16T14:00:24.954Z,3.10
2023-05-16T14:00:59.037Z,3.60
2023-05-16T14:01:58.220Z,5.00
2023-05-16T14:02:58.064Z,3.50
2023-05-16T14:03:58.010Z,5.30
2023-05-16T14:04:57.986Z,4.70
2023-05-16T14:05:58.007Z,4.30
2023-05-16T14:06:57.969Z,4.20
2023-05-16T14:07:57.958Z,4.20
2023-05-16T14:08:57.969Z,3.20
2023-05-16T14:09:57.925Z,3.50
2023-05-16T14:10:57.926Z,4.40
2023-05-16T14:11:57.902Z,5.30
2023-05-16T14:12:57.896Z,4.00
2023-05-16T14:13:57.876Z,4.00
2023-05-16T14:14:57.885Z,4.50
2023-05-16T14:15:58.021Z,4.10
2023-05-16T14:16:57.869Z,2.00
2023-05-16T14:17:57.907Z,4.40
2023-05-16T14:18:57.948Z,4.90
2023-05-16T14:19:57.815Z,5.50
2023-05-16T14:20:57.836Z,4.40
2023-05-16T14:21:57.846Z,3.70
2023-05-16T14:22:57.787Z,3.30
2023-05-16T14:23:57.834Z,5.00
2023-05-16T14:24:57.753Z,3.10
2023-05-16T14:25:57.755Z,3.70
2023-05-16T14:26:57.793Z,3.20
2023-05-16T14:27:58.676Z,4.90